Time;durP1;ratioP1;P1;durP2;ratioP2;P2;SDS_P1;SDS_P2;PMS_P1;PMS_P2;Temp;Humidity;BMP_temperature;BMP_pressure;BME280_temperature;BME280_humidity;BME280_pressure;Samples;Min_cycle;Max_cycle;Signal;HPM_P1;HPM_P2
2023/08/27 00:02:03;;;;;;;23.67;21.48;;;;;;;24.94;65.50;99759.22;5032815;27;98642;-77
2023/08/27 00:04:29;;;;;;;23.92;21.80;;;;;;;24.89;65.70;99756.16;5036111;28;96747;-77
2023/08/27 00:06:55;;;;;;;23.75;21.85;;;;;;;24.82;65.79;99754.09;5028780;28;96800;-77
2023/08/27 00:09:20;;;;;;;23.08;21.17;;;;;;;24.83;65.57;99760.31;5019647;28;98608;-77
2023/08/27 00:11:46;;;;;;;23.88;22.08;;;;;;;24.74;65.36;99753.22;5026045;28;98469;-77
2023/08/27 00:14:11;;;;;;;22.52;20.77;;;;;;;24.66;65.67;99766.56;5025607;28;96760;-77
2023/08/27 00:16:37;;;;;;;23.17;21.38;;;;;;;24.65;66.07;99779.16;5033977;28;96775;-76
2023/08/27 00:19:03;;;;;;;23.30;21.42;;;;;;;24.70;65.92;99767.97;5029949;28;98668;-77
2023/08/27 00:21:29;;;;;;;22.00;20.30;;;;;;;24.71;66.21;99770.47;5021981;28;98478;-76
2023/08/27 00:23:54;;;;;;;22.80;20.80;;;;;;;24.72;65.98;99771.31;5032933;28;96706;-76
2023/08/27 00:26:20;;;;;;;22.90;21.00;;;;;;;24.76;66.42;99780.75;5030277;28;97926;-76
2023/08/27 00:28:45;;;;;;;23.67;21.60;;;;;;;24.76;66.43;99772.69;5020577;28;98984;-77
2023/08/27 00:31:11;;;;;;;22.30;20.45;;;;;;;24.79;66.08;99783.94;5010060;28;100365;-76
2023/08/27 00:33:36;;;;;;;22.95;21.05;;;;;;;24.80;65.86;99792.84;5023089;28;96667;-76
2023/08/27 00:36:02;;;;;;;22.75;20.95;;;;;;;24.81;65.82;99792.69;5033418;28;97027;-76
2023/08/27 00:38:27;;;;;;;23.25;21.45;;;;;;;24.76;65.95;99786.09;5028573;28;97522;-77
2023/08/27 00:40:53;;;;;;;23.60;21.75;;;;;;;24.67;66.04;99790.56;5006869;28;100159;-77
2023/08/27 00:43:19;;;;;;;23.77;21.67;;;;;;;24.55;66.20;99789.09;5031729;28;96673;-77
2023/08/27 00:45:45;;;;;;;23.80;21.95;;;;;;;24.55;66.47;99789.09;5020989;28;97013;-76
2023/08/27 00:48:11;;;;;;;24.42;22.05;;;;;;;24.35;66.79;99786.59;5024266;28;97431;-76
2023/08/27 00:50:36;;;;;;;23.75;21.85;;;;;;;24.27;67.27;99774.94;5017267;28;97328;-77
2023/08/27 00:53:02;;;;;;;23.23;21.42;;;;;;;24.34;67.09;99766.09;5017332;28;96794;-77
2023/08/27 00:55:28;;;;;;;22.98;21.35;;;;;;;24.40;67.18;99775.38;5010207;28;96813;-77
2023/08/27 00:57:54;;;;;;;23.95;22.23;;;;;;;24.43;67.18;99769.72;5001805;28;99044;-77
2023/08/27 01:00:21;;;;;;;24.15;22.30;;;;;;;24.48;67.10;99764.75;4996227;28;100334;-77
2023/08/27 01:02:48;;;;;;;23.27;21.27;;;;;;;24.53;67.33;99761.63;5014492;28;96999;-77
2023/08/27 01:05:13;;;;;;;23.42;21.70;;;;;;;24.57;67.24;99777.22;5017755;28;97458;-77
2023/08/27 01:07:53;;;;;;;23.35;21.55;;;;;;;24.56;67.11;99775.56;5020528;28;100323;-77
2023/08/27 01:10:35;;;;;;;23.52;21.67;;;;;;;24.55;67.61;99775.69;5000425;28;98296;-76
2023/08/27 01:13:05;;;;;;;23.63;21.63;;;;;;;24.57;67.03;99776.38;5014101;28;96769;-77
2023/08/27 01:15:32;;;;;;;24.08;22.17;;;;;;;24.60;66.95;99776.06;4983759;28;96646;-77
2023/08/27 01:17:59;;;;;;;23.83;22.02;;;;;;;24.55;67.38;99768.50;5017142;28;100527;-77
2023/08/27 01:20:25;;;;;;;23.73;22.02;;;;;;;24.52;67.49;99770.63;5002375;28;99936;-76
2023/08/27 01:22:51;;;;;;;24.50;22.50;;;;;;;24.46;68.01;99758.69;5013854;28;96858;-77
2023/08/27 01:25:19;;;;;;;25.23;23.02;;;;;;;24.13;68.71;99749.50;5029362;28;97070;-76
2023/08/27 01:27:51;;;;;;;26.25;23.90;;;;;;;23.97;69.07;99735.91;4989065;28;100775;-76
2023/08/27 01:30:54;;;;;;;25.50;23.42;;;;;;;23.52;71.08;99726.03;5014882;28;98295;-77
2023/08/27 01:33:24;;;;;;;25.63;23.33;;;;;;;23.59;70.83;99732.47;5005437;28;96992;-76
2023/08/27 01:35:49;;;;;;;26.48;23.92;;;;;;;23.71;70.77;99724.13;5016268;28;96961;-76
2023/08/27 01:38:15;;;;;;;24.95;22.75;;;;;;;23.79;70.14;99723.34;5005247;28;100661;-77
2023/08/27 01:40:40;;;;;;;24.70;22.85;;;;;;;23.88;70.06;99722.47;5010443;28;98291;-76
2023/08/27 01:43:06;;;;;;;25.80;23.40;;;;;;;23.95;69.55;99720.00;5024359;28;96639;-77
2023/08/27 01:45:32;;;;;;;24.30;22.48;;;;;;;23.91;69.52;99714.13;5020580;28;96876;-77
2023/08/27 01:47:57;;;;;;;25.15;23.00;;;;;;;23.69;69.87;99693.91;5027740;28;99030;-76
2023/08/27 01:50:23;;;;;;;24.80;22.90;;;;;;;23.71;70.34;99700.00;5027420;28;97071;-76
2023/08/27 01:52:48;;;;;;;25.65;23.58;;;;;;;23.72;70.15;99687.44;5002225;28;96904;-76
2023/08/27 01:55:14;;;;;;;25.33;23.13;;;;;;;23.78;69.88;99689.53;5013953;28;97499;-77
2023/08/27 01:57:39;;;;;;;25.15;22.85;;;;;;;23.88;69.74;99694.78;5013510;28;100193;-77
2023/08/27 02:00:08;;;;;;;25.92;23.42;;;;;;;24.01;69.83;99686.41;5004796;28;100314;-76
2023/08/27 02:02:41;;;;;;;25.05;23.05;;;;;;;24.06;69.78;99684.94;5012083;28;96903;-77
2023/08/27 02:05:07;;;;;;;25.00;22.80;;;;;;;24.08;69.49;99680.25;5004874;28;96965;-77
2023/08/27 02:07:37;;;;;;;26.40;23.98;;;;;;;23.94;69.72;99672.78;5048512;27;98872;-77
2023/08/27 02:10:05;;;;;;;25.50;23.48;;;;;;;23.56;70.75;99661.31;5009113;28;100663;-77
2023/08/27 02:12:31;;;;;;;26.08;24.08;;;;;;;23.57;70.84;99657.63;5005903;28;96951;-77
2023/08/27 02:14:57;;;;;;;25.33;23.33;;;;;;;23.63;70.72;99654.34;4982402;28;98299;-77
2023/08/27 02:17:22;;;;;;;25.80;23.73;;;;;;;23.66;70.54;99647.84;5001751;28;100521;-76
2023/08/27 02:19:48;;;;;;;25.77;23.88;;;;;;;23.72;70.09;99650.78;5006731;28;100224;-77
2023/08/27 02:22:19;;;;;;;24.45;22.50;;;;;;;23.69;70.04;99647.53;5000853;28;96810;-77
2023/08/27 02:24:44;;;;;;;24.90;22.70;;;;;;;23.91;69.88;99689.13;5001125;28;96924;-77
2023/08/27 02:27:12;;;;;;;25.17;23.27;;;;;;;23.99;69.69;99696.41;5004890;28;100726;-77
2023/08/27 02:29:37;;;;;;;25.33;23.05;;;;;;;24.01;69.99;99689.06;5003769;28;97082;-77
2023/08/27 02:32:03;;;;;;;24.27;22.38;;;;;;;24.04;69.97;99703.00;5000525;28;96691;-77
2023/08/27 02:34:28;;;;;;;24.92;22.90;;;;;;;24.13;69.02;99706.59;5004570;28;96755;-77
2023/08/27 02:36:54;;;;;;;23.92;21.33;;;;;;;24.13;67.72;99696.72;5021030;28;100672;-77
2023/08/27 02:39:20;;;;;;;22.83;20.73;;;;;;;24.10;66.70;99699.69;5007497;28;98767;-76
2023/08/27 02:41:46;;;;;;;22.48;20.48;;;;;;;24.06;65.84;99695.66;5008861;28;96911;-76
2023/08/27 02:44:11;;;;;;;23.45;21.10;;;;;;;24.01;65.63;99697.94;5034285;27;97137;-76
2023/08/27 02:46:37;;;;;;;22.95;21.02;;;;;;;24.01;65.31;99713.19;5025370;28;100743;-77
2023/08/27 02:49:03;;;;;;;22.85;20.80;;;;;;;23.92;65.46;99705.06;5015136;28;100169;-77
2023/08/27 02:51:29;;;;;;;22.73;20.92;;;;;;;23.94;65.03;99721.84;5011882;28;98285;-77
2023/08/27 02:53:55;;;;;;;23.17;20.98;;;;;;;23.98;65.03;99727.75;4996238;28;96895;-77
2023/08/27 02:56:21;;;;;;;23.25;20.88;;;;;;;23.99;65.07;99733.94;5013434;28;98981;-77
2023/08/27 02:58:48;;;;;;;22.15;20.55;;;;;;;23.98;64.91;99735.78;5012929;28;98449;-77
2023/08/27 03:01:20;;;;;;;23.17;20.95;;;;;;;23.95;64.41;99741.44;5013630;28;96608;-77
2023/08/27 03:03:48;;;;;;;22.92;20.85;;;;;;;23.92;64.27;99737.22;5012320;28;97264;-77
2023/08/27 03:06:14;;;;;;;22.95;21.08;;;;;;;23.89;64.41;99742.06;5001067;28;99981;-77
2023/08/27 03:08:39;;;;;;;27.92;21.02;;;;;;;23.86;64.53;99742.38;5010914;28;97449;-77
2023/08/27 03:11:05;;;;;;;23.83;21.63;;;;;;;23.79;64.34;99743.94;5012194;28;96757;-77
2023/08/27 03:13:30;;;;;;;22.48;20.52;;;;;;;23.80;64.74;99749.16;5011919;28;96831;-77
2023/08/27 03:15:56;;;;;;;23.38;21.38;;;;;;;23.75;64.87;99737.22;5017614;28;100337;-77
2023/08/27 03:18:22;;;;;;;23.17;21.05;;;;;;;23.71;64.94;99732.16;5007043;28;98491;-76
2023/08/27 03:20:48;;;;;;;23.60;21.60;;;;;;;23.68;64.98;99724.41;4992147;28;96798;-77
2023/08/27 03:23:13;;;;;;;22.58;20.77;;;;;;;23.65;65.16;99723.84;4992157;28;96797;-77
2023/08/27 03:25:39;;;;;;;22.63;21.02;;;;;;;23.58;65.21;99722.75;4992971;28;99114;-76
2023/08/27 03:28:05;;;;;;;23.30;20.88;;;;;;;23.63;65.15;99728.53;5001305;28;98435;-76
2023/08/27 03:30:32;;;;;;;23.65;21.35;;;;;;;23.65;65.12;99731.88;5011443;28;96819;-77
2023/08/27 03:32:58;;;;;;;27.05;20.30;;;;;;;23.62;64.98;99727.69;5012275;28;96923;-77
2023/08/27 03:35:23;;;;;;;22.33;20.50;;;;;;;23.63;65.15;99726.69;5012812;28;98758;-76
2023/08/27 03:37:49;;;;;;;22.70;20.63;;;;;;;23.65;65.00;99731.88;5006571;28;100008;-77
2023/08/27 03:40:15;;;;;;;23.27;20.90;;;;;;;23.61;65.04;99733.19;5002987;28;97239;-77
2023/08/27 03:42:40;;;;;;;22.70;20.20;;;;;;;23.61;64.96;99720.63;5011574;28;96822;-77
2023/08/27 03:45:06;;;;;;;23.13;21.10;;;;;;;23.60;65.12;99716.25;4994792;28;99895;-77
2023/08/27 03:47:32;;;;;;;22.27;20.63;;;;;;;23.54;65.26;99714.19;5011115;28;100199;-77
2023/08/27 03:49:57;;;;;;;22.95;20.77;;;;;;;23.45;65.34;99696.34;5012411;28;98276;-77
2023/08/27 03:52:23;;;;;;;22.92;21.05;;;;;;;23.50;65.34;99704.75;5002042;28;96796;-77
2023/08/27 03:54:48;;;;;;;22.40;20.63;;;;;;;23.50;65.03;99707.44;4994212;28;99088;-77
2023/08/27 03:57:14;;;;;;;23.02;21.13;;;;;;;23.49;64.89;99695.88;4992084;28;99776;-77
2023/08/27 03:59:39;;;;;;;22.85;20.95;;;;;;;23.44;65.10;99684.78;4991259;28;97084;-77
2023/08/27 04:02:05;;;;;;;22.38;20.50;;;;;;;23.38;65.11;99680.00;4991753;28;97060;-78
2023/08/27 04:04:32;;;;;;;22.45;20.75;;;;;;;23.40;65.15;99686.06;5001543;28;98998;-77
2023/08/27 04:06:58;;;;;;;23.45;21.45;;;;;;;23.35;65.27;99687.50;4974792;28;98659;-77
2023/08/27 04:09:24;;;;;;;23.50;21.45;;;;;;;23.35;65.07;99677.63;4992891;28;96631;-76
2023/08/27 04:11:49;;;;;;;23.45;21.65;;;;;;;23.30;65.27;99676.41;4995135;28;99645;-77
2023/08/27 04:14:15;;;;;;;23.20;21.30;;;;;;;23.28;65.30;99673.88;5011226;28;101120;-76
2023/08/27 04:16:40;;;;;;;23.58;21.48;;;;;;;23.25;65.41;99667.00;4994400;28;100211;-77
2023/08/27 04:19:06;;;;;;;24.20;22.13;;;;;;;23.28;65.54;99665.84;5011911;28;96825;-77
2023/08/27 04:21:31;;;;;;;22.92;21.23;;;;;;;23.32;65.30;99671.75;5013212;28;96857;-76
2023/08/27 04:23:57;;;;;;;23.85;22.00;;;;;;;23.36;65.21;99668.63;4999252;28;100912;-77
2023/08/27 04:26:24;;;;;;;25.02;22.50;;;;;;;23.39;65.33;99672.84;5032562;28;96718;-76
2023/08/27 04:28:50;;;;;;;22.58;21.08;;;;;;;23.40;65.46;99670.00;5032066;28;96750;-77
2023/08/27 04:31:16;;;;;;;23.88;21.85;;;;;;;23.42;65.14;99672.53;5032615;28;96752;-77
2023/08/27 04:33:42;;;;;;;22.55;20.45;;;;;;;23.46;65.45;99661.38;5032263;27;97395;-77
2023/08/27 04:36:08;;;;;;;24.33;22.52;;;;;;;23.44;64.92;99666.03;5032543;28;97129;-76
2023/08/27 04:38:33;;;;;;;23.55;21.58;;;;;;;23.56;64.75;99664.00;5014254;28;96690;-77
2023/08/27 04:41:00;;;;;;;24.30;22.48;;;;;;;23.69;64.47;99677.00;5014002;28;96888;-77
2023/08/27 04:43:26;;;;;;;22.88;20.98;;;;;;;23.67;64.70;99676.31;5032179;28;99204;-76
2023/08/27 04:45:52;;;;;;;23.13;21.20;;;;;;;23.53;65.28;99680.34;5014155;28;100060;-77
2023/08/27 04:48:18;;;;;;;23.77;21.60;;;;;;;23.54;65.07;99675.84;5032452;27;96728;-77
2023/08/27 04:50:47;;;;;;;23.83;22.13;;;;;;;23.53;65.49;99680.34;5034646;28;96868;-77
2023/08/27 04:53:13;;;;;;;23.73;21.92;;;;;;;23.57;65.36;99687.09;5030942;27;97398;-77
2023/08/27 04:55:38;;;;;;;23.55;21.23;;;;;;;23.62;65.55;99694.66;5015322;28;98652;-77
2023/08/27 04:58:04;;;;;;;23.77;21.98;;;;;;;23.65;65.61;99705.06;5013907;28;96714;-77
2023/08/27 05:00:30;;;;;;;24.42;22.58;;;;;;;23.61;65.38;99696.50;5014225;28;96757;-77
2023/08/27 05:02:55;;;;;;;24.60;22.48;;;;;;;23.68;65.32;99704.81;5013965;27;100944;-77
2023/08/27 05:05:21;;;;;;;23.40;21.58;;;;;;;23.71;65.12;99701.84;5017075;28;100283;-77
2023/08/27 05:07:47;;;;;;;24.38;22.15;;;;;;;23.71;65.13;99689.28;5017516;28;96745;-76
2023/08/27 05:10:13;;;;;;;25.15;23.23;;;;;;;23.75;65.53;99684.47;5013308;28;96841;-77
2023/08/27 05:12:38;;;;;;;24.38;22.48;;;;;;;23.80;65.24;99689.38;5003514;28;100470;-77
2023/08/27 05:15:06;;;;;;;24.75;22.55;;;;;;;23.90;65.19;99704.38;4999529;28;98280;-77
2023/08/27 05:17:32;;;;;;;25.08;22.80;;;;;;;23.98;65.07;99695.59;5013861;28;97032;-76
2023/08/27 05:19:58;;;;;;;25.23;22.95;;;;;;;24.04;64.73;99696.81;5014924;28;96917;-77
2023/08/27 05:22:24;;;;;;;25.00;23.00;;;;;;;24.15;64.31;99697.41;5014770;28;98731;-77
2023/08/27 05:24:49;;;;;;;25.55;23.15;;;;;;;24.20;64.35;99693.41;5001019;28;99808;-77
2023/08/27 05:27:15;;;;;;;25.13;22.98;;;;;;;24.20;64.54;99680.84;4994027;28;96778;-77
2023/08/27 05:29:40;;;;;;;24.63;22.33;;;;;;;24.21;64.42;99673.66;5005640;28;97080;-77
2023/08/27 05:32:06;;;;;;;25.35;22.65;;;;;;;24.27;64.34;99665.81;4999429;28;99863;-77
2023/08/27 05:34:32;;;;;;;24.50;22.35;;;;;;;24.26;63.89;99647.19;5005454;28;100588;-77
2023/08/27 05:36:57;;;;;;;25.33;22.90;;;;;;;24.34;63.88;99650.78;5004931;28;96878;-77
2023/08/27 05:39:23;;;;;;;23.30;21.50;;;;;;;24.38;64.12;99648.66;4999711;28;96877;-77
2023/08/27 05:41:49;;;;;;;24.45;22.02;;;;;;;24.38;63.87;99662.91;5014493;28;98018;-77
2023/08/27 05:44:14;;;;;;;23.42;21.30;;;;;;;24.44;63.91;99666.81;5012999;28;100674;-76
2023/08/27 05:46:40;;;;;;;23.98;22.17;;;;;;;24.45;64.17;99656.94;5013592;28;96828;-76
2023/08/27 05:49:06;;;;;;;24.67;22.23;;;;;;;24.41;64.49;99661.75;5013138;28;97086;-77
2023/08/27 05:51:34;;;;;;;25.15;22.75;;;;;;;24.44;64.41;99648.06;5013066;28;100657;-77
2023/08/27 05:53:59;;;;;;;23.73;21.92;;;;;;;24.49;64.03;99651.06;5013138;28;99891;-77
2023/08/27 05:56:27;;;;;;;24.50;22.17;;;;;;;24.47;64.29;99650.41;5013210;28;96878;-77
2023/08/27 05:58:53;;;;;;;24.95;23.02;;;;;;;24.47;64.10;99658.47;5013456;28;96833;-77
2023/08/27 06:01:19;;;;;;;24.17;21.88;;;;;;;24.45;63.59;99648.88;5012675;28;100318;-77
2023/08/27 06:03:44;;;;;;;23.90;21.85;;;;;;;24.44;64.05;99644.53;5013089;28;99789;-76
2023/08/27 06:06:10;;;;;;;24.42;22.55;;;;;;;24.46;63.78;99632.63;5000347;28;96803;-77
2023/08/27 06:08:36;;;;;;;23.83;21.90;;;;;;;24.46;63.98;99631.78;4997626;28;96869;-77
2023/08/27 06:11:04;;;;;;;24.60;22.63;;;;;;;24.50;63.91;99634.00;5006830;28;100710;-77
2023/08/27 06:13:31;;;;;;;24.30;22.33;;;;;;;24.74;63.33;99640.50;4991231;28;99852;-78
2023/08/27 06:15:56;;;;;;;24.63;22.60;;;;;;;25.05;62.29;99625.56;4999975;28;96609;-77
2023/08/27 06:18:22;;;;;;;24.48;22.42;;;;;;;25.44;61.52;99610.75;4999201;28;96798;-77
2023/08/27 06:20:48;;;;;;;24.17;22.25;;;;;;;26.17;59.40;99618.88;5006681;28;99092;-77
2023/08/27 06:23:14;;;;;;;24.08;22.08;;;;;;;26.95;57.74;99622.75;5007063;28;100341;-77
2023/08/27 06:25:40;;;;;;;24.58;22.58;;;;;;;26.87;57.47;99630.84;5029340;28;96849;-77
2023/08/27 06:28:07;;;;;;;23.88;21.50;;;;;;;26.64;58.08;99626.19;5012146;28;97342;-77
2023/08/27 06:30:33;;;;;;;23.60;21.55;;;;;;;26.43;58.39;99628.59;4995233;28;100560;-77
2023/08/27 06:33:02;;;;;;;25.05;22.83;;;;;;;26.37;58.74;99630.09;5004294;28;100735;-77
2023/08/27 06:35:28;;;;;;;24.55;22.20;;;;;;;26.36;58.66;99624.91;5010598;28;97052;-77
2023/08/27 06:37:53;;;;;;;22.35;20.75;;;;;;;26.30;58.84;99639.03;4996840;28;96805;-78
2023/08/27 06:40:19;;;;;;;23.50;21.50;;;;;;;26.24;59.21;99639.69;5002092;28;97483;-77
2023/08/27 06:42:44;;;;;;;24.60;22.27;;;;;;;26.15;59.15;99638.88;5004784;28;100307;-77
2023/08/27 06:45:16;;;;;;;25.02;22.60;;;;;;;26.00;59.61;99624.44;5012594;28;97135;-77
2023/08/27 06:47:41;;;;;;;24.40;22.42;;;;;;;25.86;60.24;99612.50;5001070;28;96821;-77
2023/08/27 06:50:08;;;;;;;23.77;21.98;;;;;;;25.97;59.97;99621.06;5011810;28;100251;-77
2023/08/27 06:52:33;;;;;;;23.27;21.42;;;;;;;25.91;60.22;99620.91;5019984;27;99712;-77
2023/08/27 06:55:00;;;;;;;24.60;22.67;;;;;;;25.77;60.34;99622.38;4996534;28;97612;-77
2023/08/27 06:57:25;;;;;;;25.00;22.77;;;;;;;25.60;60.97;99610.78;5006376;28;96907;-77
2023/08/27 06:59:52;;;;;;;25.25;23.25;;;;;;;25.45;62.06;99593.63;4999472;28;100397;-77
2023/08/27 07:02:18;;;;;;;24.70;22.38;;;;;;;25.45;61.64;99575.66;4999238;28;100063;-77
2023/08/27 07:04:43;;;;;;;23.23;21.30;;;;;;;25.80;60.70;99581.72;5004283;28;97009;-77
2023/08/27 07:07:09;;;;;;;24.25;22.25;;;;;;;27.81;56.01;99588.59;5007362;28;97270;-77
2023/08/27 07:09:34;;;;;;;25.20;22.98;;;;;;;31.11;48.73;99572.53;4999771;28;97805;-78
2023/08/27 07:12:00;;;;;;;23.13;21.27;;;;;;;32.69;45.17;99572.81;5028104;27;98611;-76
2023/08/27 07:14:26;;;;;;;24.67;22.42;;;;;;;33.10;43.99;99568.94;5012934;28;96685;-76
2023/08/27 07:16:52;;;;;;;24.30;22.40;;;;;;;35.63;38.90;99568.31;4996802;28;96853;-76
2023/08/27 07:19:17;;;;;;;24.63;22.42;;;;;;;40.37;31.80;99562.47;5002660;28;100746;-76
2023/08/27 07:21:43;;;;;;;23.65;21.73;;;;;;;43.71;27.51;99557.19;5010853;28;100431;-77
2023/08/27 07:24:09;;;;;;;22.50;20.92;;;;;;;41.68;29.17;99571.44;4999787;28;96863;-76
2023/08/27 07:26:34;;;;;;;22.48;20.65;;;;;;;37.53;34.70;99568.69;5017466;28;96750;-77
2023/08/27 07:29:00;;;;;;;23.05;21.20;;;;;;;34.55;39.51;99580.81;5007684;28;100728;-77
2023/08/27 07:31:25;;;;;;;23.42;21.45;;;;;;;32.36;42.87;99588.34;4998629;28;100364;-78
2023/08/27 07:33:52;;;;;;;22.90;21.15;;;;;;;31.19;44.91;99585.09;5011861;28;98004;-77
2023/08/27 07:36:17;;;;;;;23.45;21.75;;;;;;;32.35;42.35;99587.53;5007615;28;96871;-77
2023/08/27 07:38:43;;;;;;;23.30;21.70;;;;;;;32.71;41.63;99574.50;5002486;28;100614;-76
2023/08/27 07:41:09;;;;;;;23.33;21.33;;;;;;;37.35;34.87;99580.63;5010303;28;98258;-76
2023/08/27 07:43:36;;;;;;;21.60;19.95;;;;;;;38.01;33.78;99583.72;5006169;28;96589;-77
2023/08/27 07:46:01;;;;;;;21.90;20.27;;;;;;;38.97;31.30;99575.22;5002841;28;97114;-77
2023/08/27 07:48:29;;;;;;;20.55;19.13;;;;;;;36.03;35.67;99585.69;5007574;28;100663;-76
2023/08/27 07:50:56;;;;;;;21.38;19.75;;;;;;;34.33;38.66;99596.75;5021132;28;99980;-77
2023/08/27 07:53:22;;;;;;;21.98;20.23;;;;;;;33.57;39.70;99595.88;5029462;28;97604;-73
2023/08/27 07:55:47;;;;;;;21.23;19.73;;;;;;;33.36;40.02;99595.09;5019700;28;96896;-75
2023/08/27 07:58:13;;;;;;;21.98;19.98;;;;;;;32.13;43.22;99602.38;4994611;28;101122;-75
2023/08/27 08:00:39;;;;;;;21.83;20.17;;;;;;;31.50;44.01;99600.81;5012846;28;100286;-75
2023/08/27 08:03:04;;;;;;;20.80;19.15;;;;;;;30.95;45.75;99599.16;5017071;28;96676;-74
2023/08/27 08:05:30;;;;;;;20.23;18.60;;;;;;;30.67;46.64;99597.34;5005009;28;96898;-75
2023/08/27 08:07:56;;;;;;;20.90;19.30;;;;;;;30.89;46.14;99584.53;5003025;28;98520;-75
2023/08/27 08:10:21;;;;;;;21.80;19.90;;;;;;;31.32;45.93;99582.38;5001876;28;98267;-74
2023/08/27 08:12:47;;;;;;;21.17;19.55;;;;;;;30.80;46.81;99574.91;5014874;28;97390;-75
2023/08/27 08:15:14;;;;;;;21.80;20.08;;;;;;;30.66;47.81;99588.38;5010633;28;96804;-73
2023/08/27 08:17:39;;;;;;;22.67;20.67;;;;;;;30.30;47.90;99587.72;5023565;28;98693;-78
2023/08/27 08:20:06;;;;;;;21.33;19.83;;;;;;;29.77;48.53;99594.34;5022359;27;99374;-72
2023/08/27 08:22:31;;;;;;;22.00;20.05;;;;;;;29.59;49.18;99595.81;5027876;27;96810;-72
2023/08/27 08:24:56;;;;;;;21.50;19.83;;;;;;;29.40;50.06;99590.00;5043543;27;97355;-74
2023/08/27 08:27:22;;;;;;;22.20;20.60;;;;;;;29.23;50.72;99585.88;5028861;27;99071;-74
2023/08/27 08:29:49;;;;;;;21.70;20.02;;;;;;;29.01;51.24;99582.28;5022056;28;98619;-75
2023/08/27 08:32:14;;;;;;;23.60;21.17;;;;;;;28.98;51.09;99590.75;5030519;28;96929;-75
2023/08/27 08:34:40;;;;;;;21.33;19.63;;;;;;;28.86;51.04;99601.19;5027294;28;96819;-83
2023/08/27 08:37:05;;;;;;;20.80;19.40;;;;;;;28.73;51.10;99590.22;5034501;27;98666;-84
2023/08/27 08:39:31;;;;;;;20.95;19.25;;;;;;;28.65;51.47;99599.25;5021323;28;97380;-82
2023/08/27 08:42:11;;;;;;;21.13;19.38;;;;;;;28.55;52.12;99598.69;5034835;28;96804;-83
2023/08/27 08:44:45;;;;;;;21.10;19.33;;;;;;;28.57;52.06;99605.59;5021862;28;96883;-83
2023/08/27 08:47:11;;;;;;;22.83;20.80;;;;;;;28.75;51.99;99609.78;5034124;28;98948;-83
2023/08/27 08:49:40;;;;;;;21.80;19.95;;;;;;;28.72;52.13;99602.88;5029564;27;98218;-80
2023/08/27 08:52:08;;;;;;;22.08;20.08;;;;;;;28.73;52.29;99591.03;5047025;27;96782;-80
2023/08/27 08:54:36;;;;;;;23.08;20.77;;;;;;;28.73;52.90;99595.63;5035786;28;96796;-81
2023/08/27 08:57:03;;;;;;;21.25;19.63;;;;;;;28.93;52.22;99599.41;5016805;28;99211;-81
2023/08/27 08:59:29;;;;;;;22.40;20.20;;;;;;;29.00;52.27;99613.84;5027788;27;98716;-80
2023/08/27 09:01:55;;;;;;;21.05;19.63;;;;;;;28.75;52.75;99612.47;5028318;28;97093;-79
2023/08/27 09:04:21;;;;;;;23.38;21.33;;;;;;;28.33;52.76;99603.97;5000747;28;97005;-80
2023/08/27 09:06:47;;;;;;;21.73;20.17;;;;;;;28.26;53.12;99592.22;5014574;28;98966;-79
2023/08/27 09:09:13;;;;;;;22.40;20.27;;;;;;;28.47;52.91;99596.91;5010074;28;98519;-72
2023/08/27 09:11:38;;;;;;;21.42;19.80;;;;;;;28.70;52.27;99583.31;5025078;28;97125;-72
2023/08/27 09:14:04;;;;;;;21.10;19.35;;;;;;;29.19;51.57;99581.88;5001173;28;97247;-72
2023/08/27 09:16:30;;;;;;;21.15;19.55;;;;;;;29.45;50.15;99581.34;5023542;27;99328;-73
2023/08/27 09:18:56;;;;;;;20.92;19.23;;;;;;;29.14;50.77;99590.53;5031303;27;98568;-74
2023/08/27 09:21:22;;;;;;;20.23;18.70;;;;;;;29.44;50.26;99598.56;5022410;28;96827;-73
2023/08/27 09:23:48;;;;;;;21.10;19.38;;;;;;;29.21;50.45;99596.88;5030690;28;97378;-72
2023/08/27 09:26:14;;;;;;;21.50;19.75;;;;;;;28.79;51.71;99590.28;5035250;27;98428;-73
2023/08/27 09:28:40;;;;;;;21.83;19.92;;;;;;;28.33;52.59;99595.88;5020588;27;98411;-74
2023/08/27 09:31:09;;;;;;;21.42;19.55;;;;;;;27.84;53.67;99592.75;5018038;28;96730;-74
2023/08/27 09:33:43;;;;;;;21.38;19.55;;;;;;;27.91;53.80;99599.97;5020293;28;97185;-74
2023/08/27 09:36:09;;;;;;;22.13;20.05;;;;;;;27.83;53.74;99607.28;5018677;27;98915;-74
2023/08/27 09:38:39;;;;;;;20.63;19.08;;;;;;;27.54;54.22;99604.25;5039250;27;98226;-72
2023/08/27 09:49:04;;;;;;;22.00;20.10;;;;;;;27.21;55.11;99603.63;5022176;28;97121;-74
2023/08/27 09:51:48;;;;;;;20.40;18.77;;;;;;;27.01;55.71;99597.81;5012733;28;97072;-74
2023/08/27 09:57:49;;;;;;;20.98;19.02;;;;;;;26.68;56.43;99590.91;5028309;28;96741;-75
2023/08/27 10:00:32;;;;;;;20.70;18.50;;;;;;;26.74;56.06;99606.34;5015555;28;98985;-74
2023/08/27 10:03:21;;;;;;;22.70;20.42;;;;;;;26.54;56.48;99606.72;5032822;27;98313;-74
2023/08/27 10:09:11;;;;;;;21.88;19.65;;;;;;;26.56;56.27;99574.28;5013421;28;96833;-77
2023/08/27 10:12:02;;;;;;;21.27;19.48;;;;;;;26.58;56.98;99583.84;5028248;28;97352;-76
2023/08/27 10:14:41;;;;;;;20.73;19.02;;;;;;;26.58;56.56;99591.06;5024318;28;97674;-76
2023/08/27 10:17:49;;;;;;;20.95;19.05;;;;;;;26.54;56.67;99589.75;4999388;28;96830;-75
2023/08/27 10:20:21;;;;;;;20.55;19.02;;;;;;;26.50;57.15;99588.41;5037134;27;97124;-73
2023/08/27 10:23:12;;;;;;;21.77;19.75;;;;;;;26.44;56.68;99581.81;5041240;27;98640;-74
2023/08/27 10:25:55;;;;;;;20.73;18.73;;;;;;;26.35;56.86;99578.31;5025830;28;97455;-73
2023/08/27 10:28:21;;;;;;;21.42;19.33;;;;;;;26.34;57.15;99568.56;5008895;28;96902;-72
2023/08/27 10:31:13;;;;;;;21.95;19.98;;;;;;;26.32;56.85;99575.13;5013810;27;97239;-74
2023/08/27 10:33:39;;;;;;;21.42;19.48;;;;;;;26.34;56.65;99563.19;4991273;28;98995;-75
2023/08/27 10:36:13;;;;;;;21.83;19.92;;;;;;;26.50;56.37;99570.44;5022984;28;98706;-87
2023/08/27 10:38:39;;;;;;;20.95;19.35;;;;;;;26.44;56.35;99568.38;5008249;28;96918;-85
2023/08/27 10:41:06;;;;;;;21.92;19.83;;;;;;;26.45;56.67;99586.22;5006609;28;96928;-87
2023/08/27 10:43:36;;;;;;;21.55;19.67;;;;;;;26.46;56.80;99582.50;5022034;28;99468;-90
2023/08/27 10:46:18;;;;;;;21.67;19.77;;;;;;;26.42;56.53;99571.25;5028046;28;99176;-93
2023/08/27 10:48:53;;;;;;;21.27;19.77;;;;;;;26.40;57.07;99561.66;5022628;28;97657;-89
2023/08/27 10:51:21;;;;;;;22.45;20.38;;;;;;;26.28;57.58;99563.88;5013463;27;96798;-90
2023/08/27 10:53:49;;;;;;;23.80;21.58;;;;;;;26.25;57.60;99561.53;5021039;28;99142;-90
2023/08/27 10:56:36;;;;;;;23.52;21.73;;;;;;;26.13;57.89;99569.13;5031731;28;98653;-88
2023/08/27 10:59:01;;;;;;;28.15;24.83;;;;;;;26.10;58.23;99571.31;5014560;28;96846;-89
2023/08/27 11:01:27;;;;;;;25.40;23.30;;;;;;;26.04;58.04;99563.94;5033205;28;96713;-89
2023/08/27 11:04:01;;;;;;;25.10;22.95;;;;;;;26.10;57.95;99574.00;5032133;27;98770;-88
2023/08/27 11:06:41;;;;;;;25.65;23.58;;;;;;;26.11;58.06;99586.44;5032432;27;98597;-90
2023/08/27 11:09:15;;;;;;;25.15;22.77;;;;;;;26.13;58.02;99587.94;5031338;28;96750;-91
2023/08/27 11:11:43;;;;;;;23.67;21.67;;;;;;;26.10;58.08;99582.09;5032091;28;97067;-85
2023/08/27 11:14:09;;;;;;;24.17;22.08;;;;;;;26.10;58.29;99572.16;5031655;27;98638;-85
2023/08/27 11:16:48;;;;;;;23.75;21.20;;;;;;;26.11;57.99;99568.44;5013878;28;98357;-86
2023/08/27 11:19:14;;;;;;;21.70;20.00;;;;;;;26.12;58.18;99559.41;5030235;27;97497;-91
2023/08/27 11:21:42;;;;;;;23.13;20.80;;;;;;;26.19;58.00;99538.03;5028191;27;96810;-89
2023/08/27 11:24:10;;;;;;;23.98;20.92;;;;;;;26.31;57.71;99528.56;5032661;28;98016;-89
2023/08/27 11:26:36;;;;;;;23.05;20.80;;;;;;;26.45;57.44;99520.81;5016531;28;98601;-87
2023/08/27 11:29:03;;;;;;;22.55;20.40;;;;;;;26.60;57.20;99516.41;5034469;28;96769;-90
2023/08/27 11:31:32;;;;;;;21.83;20.08;;;;;;;26.73;56.17;99508.56;5034317;28;97087;-89
2023/08/27 11:33:57;;;;;;;21.85;20.10;;;;;;;26.80;55.97;99504.19;5033719;27;99328;-92